sensor_id;sensor_type;location;lat;lon;timestamp;temperature;humidity
71668;DHT22;59504;54.806;9.640;2024-01-16T00:07:28;-3.20;76.40
71668;DHT22;59504;54.806;9.640;2024-01-16T00:09:49;-3.20;77.10
71668;DHT22;59504;54.806;9.640;2024-01-16T00:12:12;-3.10;76.40
71668;DHT22;59504;54.806;9.640;2024-01-16T00:14:36;-3.10;76.40
71668;DHT22;59504;54.806;9.640;2024-01-16T00:16:57;-3.10;76.40
71668;DHT22;59504;54.806;9.640;2024-01-16T00:19:17;-3.10;76.40
71668;DHT22;59504;54.806;9.640;2024-01-16T00:21:39;-3.10;76.40
71668;DHT22;59504;54.806;9.640;2024-01-16T00:23:59;-3.10;76.40
71668;DHT22;59504;54.806;9.640;2024-01-16T00:26:20;-3.00;76.50
71668;DHT22;59504;54.806;9.640;2024-01-16T00:28:42;-3.00;76.50
71668;DHT22;59504;54.806;9.640;2024-01-16T00:31:06;-3.00;77.20
71668;DHT22;59504;54.806;9.640;2024-01-16T00:33:28;-3.00;76.50
71668;DHT22;59504;54.806;9.640;2024-01-16T00:35:48;-3.00;76.40
71668;DHT22;59504;54.806;9.640;2024-01-16T00:38:09;-3.00;76.40
71668;DHT22;59504;54.806;9.640;2024-01-16T00:40:29;-3.00;76.40
71668;DHT22;59504;54.806;9.640;2024-01-16T00:42:50;-3.00;76.40
71668;DHT22;59504;54.806;9.640;2024-01-16T00:45:11;-3.00;76.40
71668;DHT22;59504;54.806;9.640;2024-01-16T00:47:31;-2.90;76.50
71668;DHT22;59504;54.806;9.640;2024-01-16T00:49:50;-2.90;77.20
71668;DHT22;59504;54.806;9.640;2024-01-16T00:52:10;-2.90;76.60
71668;DHT22;59504;54.806;9.640;2024-01-16T00:54:29;-2.90;76.60
71668;DHT22;59504;54.806;9.640;2024-01-16T00:56:48;-2.90;76.50
71668;DHT22;59504;54.806;9.640;2024-01-16T00:59:07;-2.90;77.30
71668;DHT22;59504;54.806;9.640;2024-01-16T01:01:26;-2.90;77.30
71668;DHT22;59504;54.806;9.640;2024-01-16T01:03:46;-2.90;76.50
71668;DHT22;59504;54.806;9.640;2024-01-16T01:06:05;-2.90;76.60
71668;DHT22;59504;54.806;9.640;2024-01-16T01:08:24;-2.90;76.50
71668;DHT22;59504;54.806;9.640;2024-01-16T01:10:43;-2.90;76.50
71668;DHT22;59504;54.806;9.640;2024-01-16T01:13:03;-2.90;77.20
71668;DHT22;59504;54.806;9.640;2024-01-16T01:15:22;-2.90;76.50
71668;DHT22;59504;54.806;9.640;2024-01-16T01:17:41;-2.90;76.40
71668;DHT22;59504;54.806;9.640;2024-01-16T01:20:01;-2.90;76.40
71668;DHT22;59504;54.806;9.640;2024-01-16T01:22:20;-2.90;76.40
71668;DHT22;59504;54.806;9.640;2024-01-16T01:24:39;-2.90;76.40
71668;DHT22;59504;54.806;9.640;2024-01-16T01:26:58;-2.90;76.30
71668;DHT22;59504;54.806;9.640;2024-01-16T01:29:17;-2.90;76.30
71668;DHT22;59504;54.806;9.640;2024-01-16T01:31:37;-2.90;77.10
71668;DHT22;59504;54.806;9.640;2024-01-16T01:33:56;-2.90;76.30
71668;DHT22;59504;54.806;9.640;2024-01-16T01:36:15;-2.90;76.30
71668;DHT22;59504;54.806;9.640;2024-01-16T01:38:35;-2.90;76.40
71668;DHT22;59504;54.806;9.640;2024-01-16T01:40:54;-2.90;76.50
71668;DHT22;59504;54.806;9.640;2024-01-16T01:43:17;-2.90;76.40
71668;DHT22;59504;54.806;9.640;2024-01-16T01:45:38;-2.90;76.50
71668;DHT22;59504;54.806;9.640;2024-01-16T01:47:58;-2.90;76.60
71668;DHT22;59504;54.806;9.640;2024-01-16T01:50:18;-2.90;76.60
71668;DHT22;59504;54.806;9.640;2024-01-16T01:52:40;-2.90;76.60
71668;DHT22;59504;54.806;9.640;2024-01-16T01:55:00;-2.90;76.60
71668;DHT22;59504;54.806;9.640;2024-01-16T01:57:20;-2.80;76.70
71668;DHT22;59504;54.806;9.640;2024-01-16T01:59:39;-2.80;76.70
71668;DHT22;59504;54.806;9.640;2024-01-16T02:01:59;-2.80;76.60
71668;DHT22;59504;54.806;9.640;2024-01-16T02:04:19;-2.80;76.60
71668;DHT22;59504;54.806;9.640;2024-01-16T02:06:38;-2.80;76.60
71668;DHT22;59504;54.806;9.640;2024-01-16T02:08:58;-2.80;76.60
71668;DHT22;59504;54.806;9.640;2024-01-16T02:11:17;-2.80;76.60
71668;DHT22;59504;54.806;9.640;2024-01-16T02:13:36;-2.80;76.60
71668;DHT22;59504;54.806;9.640;2024-01-16T02:15:56;-2.80;76.60
71668;DHT22;59504;54.806;9.640;2024-01-16T02:18:15;-2.80;76.60
71668;DHT22;59504;54.806;9.640;2024-01-16T02:20:34;-2.80;76.60
71668;DHT22;59504;54.806;9.640;2024-01-16T02:22:54;-2.80;76.60
71668;DHT22;59504;54.806;9.640;2024-01-16T02:25:14;-2.80;76.60
71668;DHT22;59504;54.806;9.640;2024-01-16T02:27:33;-2.80;76.60
71668;DHT22;59504;54.806;9.640;2024-01-16T02:29:53;-2.90;76.60
71668;DHT22;59504;54.806;9.640;2024-01-16T02:32:12;-2.90;77.20
71668;DHT22;59504;54.806;9.640;2024-01-16T02:34:31;-2.90;76.40
71668;DHT22;59504;54.806;9.640;2024-01-16T02:36:51;-2.90;76.40
71668;DHT22;59504;54.806;9.640;2024-01-16T02:39:10;-2.90;76.40
71668;DHT22;59504;54.806;9.640;2024-01-16T02:41:31;-3.00;76.30
71668;DHT22;59504;54.806;9.640;2024-01-16T02:43:50;-3.00;76.20
71668;DHT22;59504;54.806;9.640;2024-01-16T02:46:09;-3.00;77.00
71668;DHT22;59504;54.806;9.640;2024-01-16T02:48:28;-3.00;77.00
71668;DHT22;59504;54.806;9.640;2024-01-16T02:50:48;-3.10;76.20
71668;DHT22;59504;54.806;9.640;2024-01-16T02:53:07;-3.10;76.20
71668;DHT22;59504;54.806;9.640;2024-01-16T02:55:26;-3.10;76.20
71668;DHT22;59504;54.806;9.640;2024-01-16T02:57:45;-3.20;76.10
71668;DHT22;59504;54.806;9.640;2024-01-16T03:00:05;-3.20;76.10
71668;DHT22;59504;54.806;9.640;2024-01-16T03:02:25;-3.20;76.10
71668;DHT22;59504;54.806;9.640;2024-01-16T03:04:44;-3.30;76.00
71668;DHT22;59504;54.806;9.640;2024-01-16T03:07:03;-3.30;76.00
71668;DHT22;59504;54.806;9.640;2024-01-16T03:09:22;-3.30;76.00
71668;DHT22;59504;54.806;9.640;2024-01-16T03:11:42;-3.40;75.90
71668;DHT22;59504;54.806;9.640;2024-01-16T03:14:01;-3.40;75.90
71668;DHT22;59504;54.806;9.640;2024-01-16T03:16:20;-3.40;76.00
71668;DHT22;59504;54.806;9.640;2024-01-16T03:18:39;-3.40;76.00
71668;DHT22;59504;54.806;9.640;2024-01-16T03:20:59;-3.50;76.00
71668;DHT22;59504;54.806;9.640;2024-01-16T03:23:18;-3.50;76.10
71668;DHT22;59504;54.806;9.640;2024-01-16T03:25:38;-3.50;76.10
71668;DHT22;59504;54.806;9.640;2024-01-16T03:27:57;-3.50;76.10
71668;DHT22;59504;54.806;9.640;2024-01-16T03:30:17;-3.60;76.00
71668;DHT22;59504;54.806;9.640;2024-01-16T03:32:36;-3.60;76.10
71668;DHT22;59504;54.806;9.640;2024-01-16T03:34:55;-3.60;76.20
71668;DHT22;59504;54.806;9.640;2024-01-16T03:37:14;-3.60;76.20
71668;DHT22;59504;54.806;9.640;2024-01-16T03:39:34;-3.60;76.30
71668;DHT22;59504;54.806;9.640;2024-01-16T03:41:53;-3.60;76.40
71668;DHT22;59504;54.806;9.640;2024-01-16T03:44:12;-3.60;76.50
71668;DHT22;59504;54.806;9.640;2024-01-16T03:46:32;-3.60;76.60
71668;DHT22;59504;54.806;9.640;2024-01-16T03:48:51;-3.50;76.70
71668;DHT22;59504;54.806;9.640;2024-01-16T03:51:10;-3.50;76.80
71668;DHT22;59504;54.806;9.640;2024-01-16T03:53:29;-3.50;76.80
71668;DHT22;59504;54.806;9.640;2024-01-16T03:55:48;-3.50;77.70
71668;DHT22;59504;54.806;9.640;2024-01-16T03:58:08;-3.50;77.00
71668;DHT22;59504;54.806;9.640;2024-01-16T04:00:27;-3.40;77.10
71668;DHT22;59504;54.806;9.640;2024-01-16T04:02:47;-3.30;77.20
71668;DHT22;59504;54.806;9.640;2024-01-16T04:05:06;-3.40;77.20
71668;DHT22;59504;54.806;9.640;2024-01-16T04:07:25;-3.40;77.20
71668;DHT22;59504;54.806;9.640;2024-01-16T04:09:45;-3.40;77.90
71668;DHT22;59504;54.806;9.640;2024-01-16T04:12:04;-3.40;77.10
71668;DHT22;59504;54.806;9.640;2024-01-16T04:14:24;-3.30;77.10
71668;DHT22;59504;54.806;9.640;2024-01-16T04:16:43;-3.30;77.10
71668;DHT22;59504;54.806;9.640;2024-01-16T04:19:02;-3.30;77.90
71668;DHT22;59504;54.806;9.640;2024-01-16T04:21:22;-3.30;77.90
71668;DHT22;59504;54.806;9.640;2024-01-16T04:23:41;-3.30;77.10
71668;DHT22;59504;54.806;9.640;2024-01-16T04:26:01;-3.30;77.10
71668;DHT22;59504;54.806;9.640;2024-01-16T04:28:20;-3.20;77.20
71668;DHT22;59504;54.806;9.640;2024-01-16T04:30:39;-3.30;77.10
71668;DHT22;59504;54.806;9.640;2024-01-16T04:32:58;-3.20;77.20
71668;DHT22;59504;54.806;9.640;2024-01-16T04:35:18;-3.20;77.20
71668;DHT22;59504;54.806;9.640;2024-01-16T04:37:37;-3.20;77.20
71668;DHT22;59504;54.806;9.640;2024-01-16T04:39:56;-3.20;77.10
71668;DHT22;59504;54.806;9.640;2024-01-16T04:42:16;-3.20;77.80
71668;DHT22;59504;54.806;9.640;2024-01-16T04:44:36;-3.20;77.10
71668;DHT22;59504;54.806;9.640;2024-01-16T04:46:55;-3.20;77.10
71668;DHT22;59504;54.806;9.640;2024-01-16T04:49:14;-3.10;77.20
71668;DHT22;59504;54.806;9.640;2024-01-16T04:51:34;-3.20;77.10
71668;DHT22;59504;54.806;9.640;2024-01-16T04:53:53;-3.10;77.20
71668;DHT22;59504;54.806;9.640;2024-01-16T04:56:12;-3.10;77.30
71668;DHT22;59504;54.806;9.640;2024-01-16T04:58:32;-3.10;77.30
71668;DHT22;59504;54.806;9.640;2024-01-16T05:00:52;-3.10;77.40
71668;DHT22;59504;54.806;9.640;2024-01-16T05:03:11;-3.00;78.10
71668;DHT22;59504;54.806;9.640;2024-01-16T05:05:30;-3.00;77.50
71668;DHT22;59504;54.806;9.640;2024-01-16T05:07:50;-3.00;77.40
71668;DHT22;59504;54.806;9.640;2024-01-16T05:10:10;-3.00;77.60
71668;DHT22;59504;54.806;9.640;2024-01-16T05:12:31;-3.00;77.40
71668;DHT22;59504;54.806;9.640;2024-01-16T05:14:50;-3.00;77.40
71668;DHT22;59504;54.806;9.640;2024-01-16T05:17:10;-2.90;77.50
71668;DHT22;59504;54.806;9.640;2024-01-16T05:19:29;-2.90;77.30
71668;DHT22;59504;54.806;9.640;2024-01-16T05:21:48;-2.90;77.30
71668;DHT22;59504;54.806;9.640;2024-01-16T05:24:07;-2.90;77.30
71668;DHT22;59504;54.806;9.640;2024-01-16T05:26:27;-2.90;77.20
71668;DHT22;59504;54.806;9.640;2024-01-16T05:28:46;-2.90;77.30
71668;DHT22;59504;54.806;9.640;2024-01-16T05:31:06;-2.90;78.00
71668;DHT22;59504;54.806;9.640;2024-01-16T05:33:26;-2.90;77.30
71668;DHT22;59504;54.806;9.640;2024-01-16T05:35:45;-2.80;78.10
71668;DHT22;59504;54.806;9.640;2024-01-16T05:38:04;-2.80;77.40
71668;DHT22;59504;54.806;9.640;2024-01-16T05:40:24;-2.80;77.40
71668;DHT22;59504;54.806;9.640;2024-01-16T05:42:43;-2.80;77.40
71668;DHT22;59504;54.806;9.640;2024-01-16T05:45:02;-2.80;78.10
71668;DHT22;59504;54.806;9.640;2024-01-16T05:47:21;-2.70;77.50
71668;DHT22;59504;54.806;9.640;2024-01-16T05:49:43;-2.70;77.50
71668;DHT22;59504;54.806;9.640;2024-01-16T05:52:02;-2.70;77.50
71668;DHT22;59504;54.806;9.640;2024-01-16T05:54:21;-2.70;77.40
71668;DHT22;59504;54.806;9.640;2024-01-16T05:56:42;-2.70;77.40
71668;DHT22;59504;54.806;9.640;2024-01-16T05:59:01;-2.70;77.40
71668;DHT22;59504;54.806;9.640;2024-01-16T06:01:20;-2.60;77.50
71668;DHT22;59504;54.806;9.640;2024-01-16T06:03:40;-2.60;77.50
71668;DHT22;59504;54.806;9.640;2024-01-16T06:05:59;-2.60;77.50
71668;DHT22;59504;54.806;9.640;2024-01-16T06:08:18;-2.60;77.50
71668;DHT22;59504;54.806;9.640;2024-01-16T06:10:37;-2.60;77.50
71668;DHT22;59504;54.806;9.640;2024-01-16T06:12:57;-2.60;77.50
71668;DHT22;59504;54.806;9.640;2024-01-16T06:15:16;-2.60;77.60
71668;DHT22;59504;54.806;9.640;2024-01-16T06:17:35;-2.60;77.50
71668;DHT22;59504;54.806;9.640;2024-01-16T06:19:55;-2.50;77.60
71668;DHT22;59504;54.806;9.640;2024-01-16T06:22:14;-2.50;77.60
71668;DHT22;59504;54.806;9.640;2024-01-16T06:24:33;-2.50;77.60
71668;DHT22;59504;54.806;9.640;2024-01-16T06:26:55;-2.50;77.60
71668;DHT22;59504;54.806;9.640;2024-01-16T06:29:15;-2.50;77.60
71668;DHT22;59504;54.806;9.640;2024-01-16T06:31:34;-2.40;78.40
71668;DHT22;59504;54.806;9.640;2024-01-16T06:33:53;-2.40;77.70
71668;DHT22;59504;54.806;9.640;2024-01-16T06:36:12;-2.40;77.70
71668;DHT22;59504;54.806;9.640;2024-01-16T06:38:32;-2.40;77.70
71668;DHT22;59504;54.806;9.640;2024-01-16T06:40:51;-2.40;77.70
71668;DHT22;59504;54.806;9.640;2024-01-16T06:43:11;-2.40;77.60
71668;DHT22;59504;54.806;9.640;2024-01-16T06:45:34;-2.30;77.60
71668;DHT22;59504;54.806;9.640;2024-01-16T06:47:53;-2.30;77.60
71668;DHT22;59504;54.806;9.640;2024-01-16T06:50:12;-2.30;77.60
71668;DHT22;59504;54.806;9.640;2024-01-16T06:52:31;-2.30;77.60
71668;DHT22;59504;54.806;9.640;2024-01-16T06:54:51;-2.30;77.70
71668;DHT22;59504;54.806;9.640;2024-01-16T06:57:10;-2.30;78.50
71668;DHT22;59504;54.806;9.640;2024-01-16T06:59:29;-2.20;77.80
71668;DHT22;59504;54.806;9.640;2024-01-16T07:01:49;-2.20;77.80
71668;DHT22;59504;54.806;9.640;2024-01-16T07:04:08;-2.20;77.70
71668;DHT22;59504;54.806;9.640;2024-01-16T07:06:27;-2.20;77.80
71668;DHT22;59504;54.806;9.640;2024-01-16T07:08:47;-2.20;77.70
71668;DHT22;59504;54.806;9.640;2024-01-16T07:11:06;-2.20;77.60
71668;DHT22;59504;54.806;9.640;2024-01-16T07:13:27;-2.20;77.70
71668;DHT22;59504;54.806;9.640;2024-01-16T07:15:46;-2.20;77.80
71668;DHT22;59504;54.806;9.640;2024-01-16T07:18:06;-2.20;77.90
71668;DHT22;59504;54.806;9.640;2024-01-16T07:20:25;-2.20;77.70
71668;DHT22;59504;54.806;9.640;2024-01-16T07:22:44;-2.20;77.80
71668;DHT22;59504;54.806;9.640;2024-01-16T07:25:04;-2.20;77.80
71668;DHT22;59504;54.806;9.640;2024-01-16T07:27:23;-2.20;77.80
71668;DHT22;59504;54.806;9.640;2024-01-16T07:29:42;-2.20;77.70
71668;DHT22;59504;54.806;9.640;2024-01-16T07:32:02;-2.20;77.70
71668;DHT22;59504;54.806;9.640;2024-01-16T07:34:21;-2.20;78.50
71668;DHT22;59504;54.806;9.640;2024-01-16T07:36:40;-2.20;77.80
71668;DHT22;59504;54.806;9.640;2024-01-16T07:39:00;-2.10;77.80
71668;DHT22;59504;54.806;9.640;2024-01-16T07:41:19;-2.10;77.80
71668;DHT22;59504;54.806;9.640;2024-01-16T07:43:39;-2.10;78.50
71668;DHT22;59504;54.806;9.640;2024-01-16T07:45:58;-2.10;77.80
71668;DHT22;59504;54.806;9.640;2024-01-16T07:48:18;-2.10;77.80
71668;DHT22;59504;54.806;9.640;2024-01-16T07:50:37;-2.10;77.80
71668;DHT22;59504;54.806;9.640;2024-01-16T07:52:57;-2.10;77.80
71668;DHT22;59504;54.806;9.640;2024-01-16T07:55:16;-2.10;77.90
71668;DHT22;59504;54.806;9.640;2024-01-16T07:57:37;-2.10;77.90
71668;DHT22;59504;54.806;9.640;2024-01-16T07:59:56;-2.10;77.90
71668;DHT22;59504;54.806;9.640;2024-01-16T08:02:15;-2.10;77.90
71668;DHT22;59504;54.806;9.640;2024-01-16T08:04:34;-2.10;78.70
71668;DHT22;59504;54.806;9.640;2024-01-16T08:06:54;-2.00;78.10
71668;DHT22;59504;54.806;9.640;2024-01-16T08:09:13;-2.00;78.10
71668;DHT22;59504;54.806;9.640;2024-01-16T08:11:33;-2.00;78.10
71668;DHT22;59504;54.806;9.640;2024-01-16T08:13:54;-2.00;78.20
71668;DHT22;59504;54.806;9.640;2024-01-16T08:16:14;-1.90;79.00
71668;DHT22;59504;54.806;9.640;2024-01-16T08:18:34;-1.90;78.30
71668;DHT22;59504;54.806;9.640;2024-01-16T08:20:53;-1.90;78.40
71668;DHT22;59504;54.806;9.640;2024-01-16T08:23:12;-1.90;78.40
71668;DHT22;59504;54.806;9.640;2024-01-16T08:25:32;-1.90;78.80
71668;DHT22;59504;54.806;9.640;2024-01-16T08:27:51;-1.90;78.90
71668;DHT22;59504;54.806;9.640;2024-01-16T08:30:10;-1.80;79.00
71668;DHT22;59504;54.806;9.640;2024-01-16T08:32:33;-1.80;79.00
71668;DHT22;59504;54.806;9.640;2024-01-16T08:34:52;-1.80;79.10
71668;DHT22;59504;54.806;9.640;2024-01-16T08:37:09;-1.80;79.00
71668;DHT22;59504;54.806;9.640;2024-01-16T08:39:28;-1.80;79.70
71668;DHT22;59504;54.806;9.640;2024-01-16T08:41:51;-1.80;78.80
71668;DHT22;59504;54.806;9.640;2024-01-16T08:44:11;-1.80;78.80
71668;DHT22;59504;54.806;9.640;2024-01-16T08:46:30;-1.70;79.60
71668;DHT22;59504;54.806;9.640;2024-01-16T08:48:50;-1.70;79.00
71668;DHT22;59504;54.806;9.640;2024-01-16T08:51:10;-1.70;79.00
71668;DHT22;59504;54.806;9.640;2024-01-16T08:53:33;-1.70;79.00
71668;DHT22;59504;54.806;9.640;2024-01-16T08:55:53;-1.60;79.10
71668;DHT22;59504;54.806;9.640;2024-01-16T08:58:12;-1.60;79.10
71668;DHT22;59504;54.806;9.640;2024-01-16T09:00:31;-1.50;79.20
71668;DHT22;59504;54.806;9.640;2024-01-16T09:02:52;-1.50;79.20
71668;DHT22;59504;54.806;9.640;2024-01-16T09:05:11;-1.40;79.70
71668;DHT22;59504;54.806;9.640;2024-01-16T09:07:32;-1.40;79.30
71668;DHT22;59504;54.806;9.640;2024-01-16T09:09:51;-1.40;79.30
71668;DHT22;59504;54.806;9.640;2024-01-16T09:12:10;-1.30;79.30
71668;DHT22;59504;54.806;9.640;2024-01-16T09:14:30;-1.30;79.30
71668;DHT22;59504;54.806;9.640;2024-01-16T09:16:49;-1.20;79.30
71668;DHT22;59504;54.806;9.640;2024-01-16T09:19:08;-1.20;79.30
71668;DHT22;59504;54.806;9.640;2024-01-16T09:21:28;-1.20;79.30
71668;DHT22;59504;54.806;9.640;2024-01-16T09:23:47;-1.10;79.40
71668;DHT22;59504;54.806;9.640;2024-01-16T09:26:07;-1.10;80.10
71668;DHT22;59504;54.806;9.640;2024-01-16T09:28:26;-1.00;79.40
71668;DHT22;59504;54.806;9.640;2024-01-16T09:30:47;-1.00;79.40
71668;DHT22;59504;54.806;9.640;2024-01-16T09:33:07;-1.00;79.40
71668;DHT22;59504;54.806;9.640;2024-01-16T09:35:26;-0.90;79.50
71668;DHT22;59504;54.806;9.640;2024-01-16T09:37:45;-0.90;79.30
71668;DHT22;59504;54.806;9.640;2024-01-16T09:40:05;-0.80;79.40
71668;DHT22;59504;54.806;9.640;2024-01-16T09:42:24;-0.80;79.40
71668;DHT22;59504;54.806;9.640;2024-01-16T09:44:43;-0.80;79.40
71668;DHT22;59504;54.806;9.640;2024-01-16T09:47:03;-0.80;79.40
71668;DHT22;59504;54.806;9.640;2024-01-16T09:49:23;-0.70;79.40
71668;DHT22;59504;54.806;9.640;2024-01-16T09:51:43;-0.70;79.40
71668;DHT22;59504;54.806;9.640;2024-01-16T09:54:02;-0.70;79.50
71668;DHT22;59504;54.806;9.640;2024-01-16T09:56:27;-0.60;79.50
71668;DHT22;59504;54.806;9.640;2024-01-16T09:58:49;-0.60;79.50
71668;DHT22;59504;54.806;9.640;2024-01-16T10:01:09;-0.50;79.60
71668;DHT22;59504;54.806;9.640;2024-01-16T10:03:28;-0.50;79.60
71668;DHT22;59504;54.806;9.640;2024-01-16T10:05:49;-0.50;79.70
71668;DHT22;59504;54.806;9.640;2024-01-16T10:08:08;-0.40;79.80
71668;DHT22;59504;54.806;9.640;2024-01-16T10:10:28;-0.40;79.70
71668;DHT22;59504;54.806;9.640;2024-01-16T10:12:47;-0.40;79.70
71668;DHT22;59504;54.806;9.640;2024-01-16T10:15:09;-0.30;79.70
71668;DHT22;59504;54.806;9.640;2024-01-16T10:17:38;-0.30;79.60
71668;DHT22;59504;54.806;9.640;2024-01-16T10:19:58;-0.30;79.50
71668;DHT22;59504;54.806;9.640;2024-01-16T10:22:21;-0.30;79.50
71668;DHT22;59504;54.806;9.640;2024-01-16T10:24:41;-0.30;79.40
71668;DHT22;59504;54.806;9.640;2024-01-16T10:27:01;-0.20;79.50
71668;DHT22;59504;54.806;9.640;2024-01-16T10:29:21;-0.20;79.60
71668;DHT22;59504;54.806;9.640;2024-01-16T10:31:41;-0.20;79.60
71668;DHT22;59504;54.806;9.640;2024-01-16T10:34:00;-0.20;79.60
71668;DHT22;59504;54.806;9.640;2024-01-16T10:36:19;-0.10;79.70
71668;DHT22;59504;54.806;9.640;2024-01-16T10:38:40;-0.10;79.70
71668;DHT22;59504;54.806;9.640;2024-01-16T10:43:25;0.00;79.70
71668;DHT22;59504;54.806;9.640;2024-01-16T10:45:44;0.00;79.80
71668;DHT22;59504;54.806;9.640;2024-01-16T10:48:04;0.10;79.80
71668;DHT22;59504;54.806;9.640;2024-01-16T10:50:23;0.10;79.80
71668;DHT22;59504;54.806;9.640;2024-01-16T10:52:51;0.10;79.70
71668;DHT22;59504;54.806;9.640;2024-01-16T10:55:14;0.20;80.40
71668;DHT22;59504;54.806;9.640;2024-01-16T10:57:38;0.20;79.70
71668;DHT22;59504;54.806;9.640;2024-01-16T11:00:03;0.20;79.10
71668;DHT22;59504;54.806;9.640;2024-01-16T11:02:24;0.20;78.90
71668;DHT22;59504;54.806;9.640;2024-01-16T11:04:43;0.20;78.90
71668;DHT22;59504;54.806;9.640;2024-01-16T11:07:02;0.20;78.50
71668;DHT22;59504;54.806;9.640;2024-01-16T11:09:23;0.20;78.30
71668;DHT22;59504;54.806;9.640;2024-01-16T11:11:46;0.20;78.90
71668;DHT22;59504;54.806;9.640;2024-01-16T11:14:05;0.20;78.20
71668;DHT22;59504;54.806;9.640;2024-01-16T11:16:25;0.20;78.30
71668;DHT22;59504;54.806;9.640;2024-01-16T11:18:44;0.20;79.00
71668;DHT22;59504;54.806;9.640;2024-01-16T11:21:05;0.20;78.20
71668;DHT22;59504;54.806;9.640;2024-01-16T11:23:26;0.20;78.00
71668;DHT22;59504;54.806;9.640;2024-01-16T11:25:45;0.20;78.10
71668;DHT22;59504;54.806;9.640;2024-01-16T11:28:11;0.20;78.30
71668;DHT22;59504;54.806;9.640;2024-01-16T11:30:30;0.20;78.80
71668;DHT22;59504;54.806;9.640;2024-01-16T11:32:53;0.20;78.70
71668;DHT22;59504;54.806;9.640;2024-01-16T11:35:12;0.20;78.70
71668;DHT22;59504;54.806;9.640;2024-01-16T11:37:31;0.30;78.70
71668;DHT22;59504;54.806;9.640;2024-01-16T11:39:54;0.30;79.00
71668;DHT22;59504;54.806;9.640;2024-01-16T11:42:31;0.30;79.00
71668;DHT22;59504;54.806;9.640;2024-01-16T11:44:50;0.50;79.30
71668;DHT22;59504;54.806;9.640;2024-01-16T11:47:15;0.40;79.80
71668;DHT22;59504;54.806;9.640;2024-01-16T11:49:35;0.40;78.90
71668;DHT22;59504;54.806;9.640;2024-01-16T11:51:55;0.40;78.90
71668;DHT22;59504;54.806;9.640;2024-01-16T11:54:14;0.40;78.90
71668;DHT22;59504;54.806;9.640;2024-01-16T11:56:56;0.50;79.00
71668;DHT22;59504;54.806;9.640;2024-01-16T11:59:37;0.50;79.20
71668;DHT22;59504;54.806;9.640;2024-01-16T12:02:00;0.50;79.20
71668;DHT22;59504;54.806;9.640;2024-01-16T12:04:21;0.50;79.10
71668;DHT22;59504;54.806;9.640;2024-01-16T12:06:41;0.60;79.20
71668;DHT22;59504;54.806;9.640;2024-01-16T12:09:16;0.60;79.20
71668;DHT22;59504;54.806;9.640;2024-01-16T12:11:39;0.60;78.90
71668;DHT22;59504;54.806;9.640;2024-01-16T12:14:02;0.60;79.00
71668;DHT22;59504;54.806;9.640;2024-01-16T12:16:22;0.60;78.40
71668;DHT22;59504;54.806;9.640;2024-01-16T12:18:41;0.60;78.30
71668;DHT22;59504;54.806;9.640;2024-01-16T12:21:07;0.60;79.10
71668;DHT22;59504;54.806;9.640;2024-01-16T12:23:27;0.60;78.30
71668;DHT22;59504;54.806;9.640;2024-01-16T12:25:46;0.60;78.40
71668;DHT22;59504;54.806;9.640;2024-01-16T12:28:06;0.60;78.50
71668;DHT22;59504;54.806;9.640;2024-01-16T12:30:26;0.60;78.40
71668;DHT22;59504;54.806;9.640;2024-01-16T12:32:47;0.60;78.50
71668;DHT22;59504;54.806;9.640;2024-01-16T12:35:06;0.60;78.60
71668;DHT22;59504;54.806;9.640;2024-01-16T12:37:25;0.60;78.60
71668;DHT22;59504;54.806;9.640;2024-01-16T12:39:45;0.70;78.60
71668;DHT22;59504;54.806;9.640;2024-01-16T12:42:05;0.70;78.60
71668;DHT22;59504;54.806;9.640;2024-01-16T12:44:28;0.70;78.50
71668;DHT22;59504;54.806;9.640;2024-01-16T12:46:53;0.70;78.50
71668;DHT22;59504;54.806;9.640;2024-01-16T12:49:13;0.70;78.40
71668;DHT22;59504;54.806;9.640;2024-01-16T12:51:32;0.70;78.30
71668;DHT22;59504;54.806;9.640;2024-01-16T12:53:51;0.70;78.20
71668;DHT22;59504;54.806;9.640;2024-01-16T12:56:10;0.70;78.20
71668;DHT22;59504;54.806;9.640;2024-01-16T12:58:34;0.70;78.20
71668;DHT22;59504;54.806;9.640;2024-01-16T13:00:54;0.70;78.10
71668;DHT22;59504;54.806;9.640;2024-01-16T13:03:15;0.70;78.20
71668;DHT22;59504;54.806;9.640;2024-01-16T13:05:35;0.60;78.20
71668;DHT22;59504;54.806;9.640;2024-01-16T13:08:03;0.60;78.30
71668;DHT22;59504;54.806;9.640;2024-01-16T13:10:23;0.60;78.20
71668;DHT22;59504;54.806;9.640;2024-01-16T13:12:42;0.60;78.80
71668;DHT22;59504;54.806;9.640;2024-01-16T13:15:01;0.60;78.80
71668;DHT22;59504;54.806;9.640;2024-01-16T13:17:24;0.70;78.10
71668;DHT22;59504;54.806;9.640;2024-01-16T13:19:44;0.70;78.10
71668;DHT22;59504;54.806;9.640;2024-01-16T13:22:03;0.60;78.90
71668;DHT22;59504;54.806;9.640;2024-01-16T13:24:22;0.60;78.10
71668;DHT22;59504;54.806;9.640;2024-01-16T13:26:42;0.60;78.90
71668;DHT22;59504;54.806;9.640;2024-01-16T13:29:02;0.60;78.10
71668;DHT22;59504;54.806;9.640;2024-01-16T13:31:22;0.60;78.10
71668;DHT22;59504;54.806;9.640;2024-01-16T13:33:41;0.60;78.10
71668;DHT22;59504;54.806;9.640;2024-01-16T13:36:02;0.60;78.10
71668;DHT22;59504;54.806;9.640;2024-01-16T13:38:23;0.60;78.10
71668;DHT22;59504;54.806;9.640;2024-01-16T13:40:43;0.60;78.00
71668;DHT22;59504;54.806;9.640;2024-01-16T13:43:02;0.60;78.00
71668;DHT22;59504;54.806;9.640;2024-01-16T13:45:21;0.70;78.10
71668;DHT22;59504;54.806;9.640;2024-01-16T13:47:40;0.60;78.00
71668;DHT22;59504;54.806;9.640;2024-01-16T13:50:00;0.60;78.70
71668;DHT22;59504;54.806;9.640;2024-01-16T13:52:22;0.60;78.70
71668;DHT22;59504;54.806;9.640;2024-01-16T13:54:42;0.60;78.00
71668;DHT22;59504;54.806;9.640;2024-01-16T13:57:02;0.60;77.90
71668;DHT22;59504;54.806;9.640;2024-01-16T13:59:22;0.60;78.60
71668;DHT22;59504;54.806;9.640;2024-01-16T14:01:41;0.50;77.80
71668;DHT22;59504;54.806;9.640;2024-01-16T14:04:00;0.60;77.90
71668;DHT22;59504;54.806;9.640;2024-01-16T14:06:20;0.60;77.90
71668;DHT22;59504;54.806;9.640;2024-01-16T14:08:39;0.50;77.90
71668;DHT22;59504;54.806;9.640;2024-01-16T14:10:58;0.70;78.10
71668;DHT22;59504;54.806;9.640;2024-01-16T14:13:17;0.60;78.00
71668;DHT22;59504;54.806;9.640;2024-01-16T14:15:36;0.60;78.00
71668;DHT22;59504;54.806;9.640;2024-01-16T14:17:56;0.50;78.70
71668;DHT22;59504;54.806;9.640;2024-01-16T14:20:16;0.60;78.00
71668;DHT22;59504;54.806;9.640;2024-01-16T14:22:36;0.50;77.90
71668;DHT22;59504;54.806;9.640;2024-01-16T14:24:57;0.50;77.90
71668;DHT22;59504;54.806;9.640;2024-01-16T14:27:16;0.50;77.90
71668;DHT22;59504;54.806;9.640;2024-01-16T14:29:36;0.50;77.80
71668;DHT22;59504;54.806;9.640;2024-01-16T14:31:56;0.50;77.80
71668;DHT22;59504;54.806;9.640;2024-01-16T14:34:15;0.50;77.70
71668;DHT22;59504;54.806;9.640;2024-01-16T14:36:35;0.50;77.60
71668;DHT22;59504;54.806;9.640;2024-01-16T14:38:54;0.40;77.40
71668;DHT22;59504;54.806;9.640;2024-01-16T14:41:13;0.40;77.40
71668;DHT22;59504;54.806;9.640;2024-01-16T14:43:32;0.40;78.00
71668;DHT22;59504;54.806;9.640;2024-01-16T14:45:52;0.40;78.00
71668;DHT22;59504;54.806;9.640;2024-01-16T14:48:11;0.30;77.30
71668;DHT22;59504;54.806;9.640;2024-01-16T14:50:30;0.40;77.40
71668;DHT22;59504;54.806;9.640;2024-01-16T14:52:50;0.30;77.40
71668;DHT22;59504;54.806;9.640;2024-01-16T14:54:52;0.30;78.20
71668;DHT22;59504;54.806;9.640;2024-01-16T14:57:11;0.30;77.50